sensor_id;sensor_type;location;lat;lon;timestamp;temperature;humidity
22558;DHT22;11445;53.816;8.902;2022-12-20T00:01:32;7.00;99.90
22558;DHT22;11445;53.816;8.902;2022-12-20T00:04:02;7.00;99.90
22558;DHT22;11445;53.816;8.902;2022-12-20T00:06:30;7.00;99.90
22558;DHT22;11445;53.816;8.902;2022-12-20T00:09:00;7.10;99.90
22558;DHT22;11445;53.816;8.902;2022-12-20T00:11:28;7.10;99.90
22558;DHT22;11445;53.816;8.902;2022-12-20T00:13:55;7.10;99.90
22558;DHT22;11445;53.816;8.902;2022-12-20T00:16:24;7.10;99.90
22558;DHT22;11445;53.816;8.902;2022-12-20T00:18:53;7.10;99.90
22558;DHT22;11445;53.816;8.902;2022-12-20T00:21:20;7.10;99.90
22558;DHT22;11445;53.816;8.902;2022-12-20T00:23:47;7.10;99.90
22558;DHT22;11445;53.816;8.902;2022-12-20T00:26:18;7.10;99.90
22558;DHT22;11445;53.816;8.902;2022-12-20T00:28:45;7.10;99.90
22558;DHT22;11445;53.816;8.902;2022-12-20T00:31:14;7.20;99.90
22558;DHT22;11445;53.816;8.902;2022-12-20T00:33:44;7.20;99.90
22558;DHT22;11445;53.816;8.902;2022-12-20T00:36:11;7.20;99.90
22558;DHT22;11445;53.816;8.902;2022-12-20T00:38:38;7.20;99.90
22558;DHT22;11445;53.816;8.902;2022-12-20T00:41:06;7.20;99.90
22558;DHT22;11445;53.816;8.902;2022-12-20T00:43:35;7.20;99.90
22558;DHT22;11445;53.816;8.902;2022-12-20T00:46:02;7.30;99.90
22558;DHT22;11445;53.816;8.902;2022-12-20T00:48:31;7.30;99.90
22558;DHT22;11445;53.816;8.902;2022-12-20T00:50:59;7.30;99.90
22558;DHT22;11445;53.816;8.902;2022-12-20T00:53:27;7.30;99.90
22558;DHT22;11445;53.816;8.902;2022-12-20T00:55:54;7.30;99.90
22558;DHT22;11445;53.816;8.902;2022-12-20T00:58:21;7.40;99.90
22558;DHT22;11445;53.816;8.902;2022-12-20T01:00:50;7.40;99.90
22558;DHT22;11445;53.816;8.902;2022-12-20T01:03:17;7.40;99.90
22558;DHT22;11445;53.816;8.902;2022-12-20T01:05:49;7.40;99.90
22558;DHT22;11445;53.816;8.902;2022-12-20T01:08:17;7.40;99.90
22558;DHT22;11445;53.816;8.902;2022-12-20T01:10:44;7.40;99.90
22558;DHT22;11445;53.816;8.902;2022-12-20T01:13:12;7.40;99.90
22558;DHT22;11445;53.816;8.902;2022-12-20T01:15:39;7.40;99.90
22558;DHT22;11445;53.816;8.902;2022-12-20T01:18:07;7.40;99.90
22558;DHT22;11445;53.816;8.902;2022-12-20T01:20:34;7.50;99.90
22558;DHT22;11445;53.816;8.902;2022-12-20T01:23:01;7.50;99.90
22558;DHT22;11445;53.816;8.902;2022-12-20T01:25:28;7.50;99.90
22558;DHT22;11445;53.816;8.902;2022-12-20T01:27:55;7.50;99.90
22558;DHT22;11445;53.816;8.902;2022-12-20T01:30:22;7.60;99.90
22558;DHT22;11445;53.816;8.902;2022-12-20T01:32:49;7.60;99.90
22558;DHT22;11445;53.816;8.902;2022-12-20T01:35:17;7.60;99.90
22558;DHT22;11445;53.816;8.902;2022-12-20T01:37:44;7.60;99.90
22558;DHT22;11445;53.816;8.902;2022-12-20T01:40:12;7.60;99.90
22558;DHT22;11445;53.816;8.902;2022-12-20T01:42:39;7.60;99.90
22558;DHT22;11445;53.816;8.902;2022-12-20T01:45:12;7.70;99.90
22558;DHT22;11445;53.816;8.902;2022-12-20T01:47:40;7.70;99.90
22558;DHT22;11445;53.816;8.902;2022-12-20T01:50:08;7.70;99.90
22558;DHT22;11445;53.816;8.902;2022-12-20T01:52:38;7.70;99.90
22558;DHT22;11445;53.816;8.902;2022-12-20T01:55:10;7.70;99.90
22558;DHT22;11445;53.816;8.902;2022-12-20T01:57:42;7.70;99.90
22558;DHT22;11445;53.816;8.902;2022-12-20T02:00:12;7.80;99.90
22558;DHT22;11445;53.816;8.902;2022-12-20T02:02:40;7.80;99.90
22558;DHT22;11445;53.816;8.902;2022-12-20T02:05:07;7.80;99.90
22558;DHT22;11445;53.816;8.902;2022-12-20T02:07:37;7.90;99.90
22558;DHT22;11445;53.816;8.902;2022-12-20T02:10:05;7.90;99.90
22558;DHT22;11445;53.816;8.902;2022-12-20T02:12:37;7.90;99.90
22558;DHT22;11445;53.816;8.902;2022-12-20T02:15:30;7.90;99.90
22558;DHT22;11445;53.816;8.902;2022-12-20T02:18:08;7.90;99.90
22558;DHT22;11445;53.816;8.902;2022-12-20T02:21:06;8.00;99.90
22558;DHT22;11445;53.816;8.902;2022-12-20T02:29:37;8.10;99.90
22558;DHT22;11445;53.816;8.902;2022-12-20T02:32:13;8.00;99.90
22558;DHT22;11445;53.816;8.902;2022-12-20T02:34:43;8.00;99.90
22558;DHT22;11445;53.816;8.902;2022-12-20T02:37:10;8.10;99.90
22558;DHT22;11445;53.816;8.902;2022-12-20T02:39:39;8.10;99.90
22558;DHT22;11445;53.816;8.902;2022-12-20T02:42:09;8.10;99.90
22558;DHT22;11445;53.816;8.902;2022-12-20T02:44:40;8.20;99.90
22558;DHT22;11445;53.816;8.902;2022-12-20T02:47:30;8.20;99.90
22558;DHT22;11445;53.816;8.902;2022-12-20T02:49:59;8.20;99.90
22558;DHT22;11445;53.816;8.902;2022-12-20T02:52:27;8.20;99.90
22558;DHT22;11445;53.816;8.902;2022-12-20T02:54:56;8.20;99.90
22558;DHT22;11445;53.816;8.902;2022-12-20T02:57:27;8.30;99.90
22558;DHT22;11445;53.816;8.902;2022-12-20T02:59:59;8.20;99.90
22558;DHT22;11445;53.816;8.902;2022-12-20T03:02:29;8.20;99.90
22558;DHT22;11445;53.816;8.902;2022-12-20T03:05:20;8.20;99.90
22558;DHT22;11445;53.816;8.902;2022-12-20T03:07:48;8.30;99.90
22558;DHT22;11445;53.816;8.902;2022-12-20T03:10:15;8.30;99.90
22558;DHT22;11445;53.816;8.902;2022-12-20T03:12:42;8.30;99.90
22558;DHT22;11445;53.816;8.902;2022-12-20T03:15:09;8.30;99.90
22558;DHT22;11445;53.816;8.902;2022-12-20T03:17:38;8.30;99.90
22558;DHT22;11445;53.816;8.902;2022-12-20T03:20:07;8.40;99.90
22558;DHT22;11445;53.816;8.902;2022-12-20T03:22:35;8.40;99.90
22558;DHT22;11445;53.816;8.902;2022-12-20T03:25:03;8.40;99.90
22558;DHT22;11445;53.816;8.902;2022-12-20T03:27:30;8.40;99.90
22558;DHT22;11445;53.816;8.902;2022-12-20T03:29:57;8.40;99.90
22558;DHT22;11445;53.816;8.902;2022-12-20T03:32:24;8.40;99.90
22558;DHT22;11445;53.816;8.902;2022-12-20T03:34:53;8.40;99.90
22558;DHT22;11445;53.816;8.902;2022-12-20T03:37:20;8.40;99.90
22558;DHT22;11445;53.816;8.902;2022-12-20T03:39:47;8.40;99.90
22558;DHT22;11445;53.816;8.902;2022-12-20T03:42:14;8.50;99.90
22558;DHT22;11445;53.816;8.902;2022-12-20T03:44:41;8.50;99.90
22558;DHT22;11445;53.816;8.902;2022-12-20T03:47:08;8.50;99.90
22558;DHT22;11445;53.816;8.902;2022-12-20T03:49:35;8.50;99.90
22558;DHT22;11445;53.816;8.902;2022-12-20T03:52:04;8.60;99.90
22558;DHT22;11445;53.816;8.902;2022-12-20T03:54:31;8.60;99.90
22558;DHT22;11445;53.816;8.902;2022-12-20T03:56:58;8.60;99.90
22558;DHT22;11445;53.816;8.902;2022-12-20T03:59:25;8.60;99.90
22558;DHT22;11445;53.816;8.902;2022-12-20T04:01:51;8.60;99.90
22558;DHT22;11445;53.816;8.902;2022-12-20T04:04:18;8.60;99.90
22558;DHT22;11445;53.816;8.902;2022-12-20T04:06:45;8.60;99.90
22558;DHT22;11445;53.816;8.902;2022-12-20T04:09:14;8.60;99.90
22558;DHT22;11445;53.816;8.902;2022-12-20T04:11:41;8.60;99.90
22558;DHT22;11445;53.816;8.902;2022-12-20T04:14:08;8.60;99.90
22558;DHT22;11445;53.816;8.902;2022-12-20T04:16:35;8.60;99.90
22558;DHT22;11445;53.816;8.902;2022-12-20T04:19:02;8.60;99.90
22558;DHT22;11445;53.816;8.902;2022-12-20T04:21:32;8.60;99.90
22558;DHT22;11445;53.816;8.902;2022-12-20T04:24:00;8.60;99.90
22558;DHT22;11445;53.816;8.902;2022-12-20T04:26:29;8.60;99.90
22558;DHT22;11445;53.816;8.902;2022-12-20T04:28:56;8.70;99.90
22558;DHT22;11445;53.816;8.902;2022-12-20T04:31:24;8.60;99.90
22558;DHT22;11445;53.816;8.902;2022-12-20T04:33:51;8.60;99.90
22558;DHT22;11445;53.816;8.902;2022-12-20T04:36:18;8.60;99.90
22558;DHT22;11445;53.816;8.902;2022-12-20T04:38:45;8.60;99.90
22558;DHT22;11445;53.816;8.902;2022-12-20T04:41:12;8.60;99.90
22558;DHT22;11445;53.816;8.902;2022-12-20T04:43:49;8.60;99.90
22558;DHT22;11445;53.816;8.902;2022-12-20T04:46:16;8.60;99.90
22558;DHT22;11445;53.816;8.902;2022-12-20T04:48:43;8.60;99.90
22558;DHT22;11445;53.816;8.902;2022-12-20T04:51:10;8.60;99.90
22558;DHT22;11445;53.816;8.902;2022-12-20T04:53:37;8.60;99.90
22558;DHT22;11445;53.816;8.902;2022-12-20T04:56:13;8.60;99.90
22558;DHT22;11445;53.816;8.902;2022-12-20T04:58:41;8.60;99.90
22558;DHT22;11445;53.816;8.902;2022-12-20T05:01:10;8.50;99.90
22558;DHT22;11445;53.816;8.902;2022-12-20T05:03:37;8.50;99.90
22558;DHT22;11445;53.816;8.902;2022-12-20T05:06:04;8.50;99.90
22558;DHT22;11445;53.816;8.902;2022-12-20T05:08:32;8.50;99.90
22558;DHT22;11445;53.816;8.902;2022-12-20T05:10:59;8.50;99.90
22558;DHT22;11445;53.816;8.902;2022-12-20T05:13:26;8.50;99.90
22558;DHT22;11445;53.816;8.902;2022-12-20T05:15:54;8.50;99.90
22558;DHT22;11445;53.816;8.902;2022-12-20T05:18:24;8.50;99.90
22558;DHT22;11445;53.816;8.902;2022-12-20T05:20:54;8.50;99.90
22558;DHT22;11445;53.816;8.902;2022-12-20T05:23:36;8.50;99.90
22558;DHT22;11445;53.816;8.902;2022-12-20T05:26:21;8.40;99.90
22558;DHT22;11445;53.816;8.902;2022-12-20T05:28:49;8.40;99.90
22558;DHT22;11445;53.816;8.902;2022-12-20T05:31:17;8.40;99.90
22558;DHT22;11445;53.816;8.902;2022-12-20T05:33:45;8.40;99.90
22558;DHT22;11445;53.816;8.902;2022-12-20T05:36:12;8.40;99.90
22558;DHT22;11445;53.816;8.902;2022-12-20T05:38:39;8.40;99.90
22558;DHT22;11445;53.816;8.902;2022-12-20T05:41:06;8.40;99.90
22558;DHT22;11445;53.816;8.902;2022-12-20T05:43:33;8.40;99.90
22558;DHT22;11445;53.816;8.902;2022-12-20T05:46:00;8.40;99.90
22558;DHT22;11445;53.816;8.902;2022-12-20T05:48:27;8.40;99.90
22558;DHT22;11445;53.816;8.902;2022-12-20T05:50:56;8.40;99.90
22558;DHT22;11445;53.816;8.902;2022-12-20T05:53:23;8.40;99.90
22558;DHT22;11445;53.816;8.902;2022-12-20T05:55:51;8.40;99.90
22558;DHT22;11445;53.816;8.902;2022-12-20T05:58:19;8.40;99.90
22558;DHT22;11445;53.816;8.902;2022-12-20T06:00:46;8.40;99.90
22558;DHT22;11445;53.816;8.902;2022-12-20T06:03:14;8.40;99.90
22558;DHT22;11445;53.816;8.902;2022-12-20T06:05:41;8.40;99.90
22558;DHT22;11445;53.816;8.902;2022-12-20T06:08:11;8.30;99.90
22558;DHT22;11445;53.816;8.902;2022-12-20T06:10:39;8.30;99.90
22558;DHT22;11445;53.816;8.902;2022-12-20T06:13:08;8.40;99.90
22558;DHT22;11445;53.816;8.902;2022-12-20T06:15:35;8.40;99.90
22558;DHT22;11445;53.816;8.902;2022-12-20T06:18:03;8.40;99.90
22558;DHT22;11445;53.816;8.902;2022-12-20T06:20:30;8.40;99.90
22558;DHT22;11445;53.816;8.902;2022-12-20T06:22:57;8.40;99.90
22558;DHT22;11445;53.816;8.902;2022-12-20T06:25:26;8.40;99.90
22558;DHT22;11445;53.816;8.902;2022-12-20T06:27:53;8.40;99.90
22558;DHT22;11445;53.816;8.902;2022-12-20T06:30:20;8.40;99.90
22558;DHT22;11445;53.816;8.902;2022-12-20T06:32:47;8.50;99.90
22558;DHT22;11445;53.816;8.902;2022-12-20T06:35:14;8.50;99.90
22558;DHT22;11445;53.816;8.902;2022-12-20T06:37:41;8.50;99.90
22558;DHT22;11445;53.816;8.902;2022-12-20T06:40:11;8.50;99.90
22558;DHT22;11445;53.816;8.902;2022-12-20T06:42:39;8.50;99.90
22558;DHT22;11445;53.816;8.902;2022-12-20T06:45:07;8.50;99.90
22558;DHT22;11445;53.816;8.902;2022-12-20T06:47:35;8.50;99.90
22558;DHT22;11445;53.816;8.902;2022-12-20T06:50:03;8.60;99.90
22558;DHT22;11445;53.816;8.902;2022-12-20T06:52:30;8.60;99.90
22558;DHT22;11445;53.816;8.902;2022-12-20T06:54:57;8.70;99.90
22558;DHT22;11445;53.816;8.902;2022-12-20T06:57:24;8.70;99.90
22558;DHT22;11445;53.816;8.902;2022-12-20T06:59:52;8.70;99.90
22558;DHT22;11445;53.816;8.902;2022-12-20T07:02:19;8.80;99.90
22558;DHT22;11445;53.816;8.902;2022-12-20T07:04:46;8.80;99.90
22558;DHT22;11445;53.816;8.902;2022-12-20T07:07:13;8.80;99.90
22558;DHT22;11445;53.816;8.902;2022-12-20T07:09:41;8.80;99.90
22558;DHT22;11445;53.816;8.902;2022-12-20T07:12:09;8.80;99.90
22558;DHT22;11445;53.816;8.902;2022-12-20T07:14:36;8.80;99.90
22558;DHT22;11445;53.816;8.902;2022-12-20T07:17:05;8.90;99.90
22558;DHT22;11445;53.816;8.902;2022-12-20T07:19:33;8.90;99.90
22558;DHT22;11445;53.816;8.902;2022-12-20T07:22:00;8.90;99.90
22558;DHT22;11445;53.816;8.902;2022-12-20T07:24:27;8.90;99.90
22558;DHT22;11445;53.816;8.902;2022-12-20T07:26:54;8.90;99.90
22558;DHT22;11445;53.816;8.902;2022-12-20T07:29:21;8.90;99.90
22558;DHT22;11445;53.816;8.902;2022-12-20T07:31:49;8.90;99.90
22558;DHT22;11445;53.816;8.902;2022-12-20T07:34:17;8.90;99.90
22558;DHT22;11445;53.816;8.902;2022-12-20T07:36:44;8.90;99.90
22558;DHT22;11445;53.816;8.902;2022-12-20T07:39:11;8.90;99.90
22558;DHT22;11445;53.816;8.902;2022-12-20T07:41:38;8.90;99.90
22558;DHT22;11445;53.816;8.902;2022-12-20T07:44:05;8.90;99.90
22558;DHT22;11445;53.816;8.902;2022-12-20T07:46:32;8.90;99.90
22558;DHT22;11445;53.816;8.902;2022-12-20T07:48:59;8.90;99.90
22558;DHT22;11445;53.816;8.902;2022-12-20T07:51:31;8.90;99.90
22558;DHT22;11445;53.816;8.902;2022-12-20T07:54:02;8.90;99.90
22558;DHT22;11445;53.816;8.902;2022-12-20T07:56:32;8.90;99.90
22558;DHT22;11445;53.816;8.902;2022-12-20T07:59:00;8.90;99.90
22558;DHT22;11445;53.816;8.902;2022-12-20T08:01:29;8.90;99.90
22558;DHT22;11445;53.816;8.902;2022-12-20T08:04:01;8.90;99.90
22558;DHT22;11445;53.816;8.902;2022-12-20T08:06:31;8.90;99.90
22558;DHT22;11445;53.816;8.902;2022-12-20T08:09:02;8.90;99.90
22558;DHT22;11445;53.816;8.902;2022-12-20T08:11:32;8.90;99.90
22558;DHT22;11445;53.816;8.902;2022-12-20T08:14:00;9.00;99.90
22558;DHT22;11445;53.816;8.902;2022-12-20T08:16:28;9.00;99.90
22558;DHT22;11445;53.816;8.902;2022-12-20T08:18:56;9.00;99.90
22558;DHT22;11445;53.816;8.902;2022-12-20T08:21:23;9.00;99.90
22558;DHT22;11445;53.816;8.902;2022-12-20T08:23:51;9.10;99.90
22558;DHT22;11445;53.816;8.902;2022-12-20T08:26:18;9.10;99.90
22558;DHT22;11445;53.816;8.902;2022-12-20T08:28:45;9.10;99.90
22558;DHT22;11445;53.816;8.902;2022-12-20T08:31:12;9.10;99.90
22558;DHT22;11445;53.816;8.902;2022-12-20T08:33:39;9.10;99.90
22558;DHT22;11445;53.816;8.902;2022-12-20T08:36:08;9.20;99.90
22558;DHT22;11445;53.816;8.902;2022-12-20T08:38:36;9.20;99.90
22558;DHT22;11445;53.816;8.902;2022-12-20T08:41:06;9.20;99.90
22558;DHT22;11445;53.816;8.902;2022-12-20T08:43:33;9.30;99.90
22558;DHT22;11445;53.816;8.902;2022-12-20T08:46:01;9.30;99.90
22558;DHT22;11445;53.816;8.902;2022-12-20T08:48:28;9.30;99.90
22558;DHT22;11445;53.816;8.902;2022-12-20T08:50:55;9.30;99.90
22558;DHT22;11445;53.816;8.902;2022-12-20T08:53:22;9.40;99.90
22558;DHT22;11445;53.816;8.902;2022-12-20T08:55:50;9.40;99.90
22558;DHT22;11445;53.816;8.902;2022-12-20T08:58:19;9.40;99.90
22558;DHT22;11445;53.816;8.902;2022-12-20T09:00:46;9.40;99.90
22558;DHT22;11445;53.816;8.902;2022-12-20T09:03:13;9.40;99.90
22558;DHT22;11445;53.816;8.902;2022-12-20T09:05:44;9.40;99.90
22558;DHT22;11445;53.816;8.902;2022-12-20T09:08:12;9.40;99.90
22558;DHT22;11445;53.816;8.902;2022-12-20T09:10:39;9.40;99.90
22558;DHT22;11445;53.816;8.902;2022-12-20T09:13:07;9.40;99.90
22558;DHT22;11445;53.816;8.902;2022-12-20T09:15:35;9.40;99.90
22558;DHT22;11445;53.816;8.902;2022-12-20T09:18:03;9.40;99.90
22558;DHT22;11445;53.816;8.902;2022-12-20T09:20:30;9.40;99.90
22558;DHT22;11445;53.816;8.902;2022-12-20T09:22:57;9.40;99.90
22558;DHT22;11445;53.816;8.902;2022-12-20T09:25:25;9.30;99.90
22558;DHT22;11445;53.816;8.902;2022-12-20T09:27:52;9.30;99.90
22558;DHT22;11445;53.816;8.902;2022-12-20T09:30:19;9.30;99.90
22558;DHT22;11445;53.816;8.902;2022-12-20T09:32:48;9.30;99.90
22558;DHT22;11445;53.816;8.902;2022-12-20T09:35:15;9.30;99.90
22558;DHT22;11445;53.816;8.902;2022-12-20T09:37:42;9.30;99.90
22558;DHT22;11445;53.816;8.902;2022-12-20T09:40:16;9.30;99.90
22558;DHT22;11445;53.816;8.902;2022-12-20T09:42:44;9.20;99.90
22558;DHT22;11445;53.816;8.902;2022-12-20T09:45:20;9.20;99.90
22558;DHT22;11445;53.816;8.902;2022-12-20T09:47:51;9.20;99.90
22558;DHT22;11445;53.816;8.902;2022-12-20T09:50:19;9.20;99.90
22558;DHT22;11445;53.816;8.902;2022-12-20T09:52:54;9.20;99.90
22558;DHT22;11445;53.816;8.902;2022-12-20T09:55:28;9.10;99.90
22558;DHT22;11445;53.816;8.902;2022-12-20T10:00:49;9.10;99.90
22558;DHT22;11445;53.816;8.902;2022-12-20T10:03:21;9.10;99.90
22558;DHT22;11445;53.816;8.902;2022-12-20T10:05:51;9.10;99.90
22558;DHT22;11445;53.816;8.902;2022-12-20T10:08:42;9.10;99.90
22558;DHT22;11445;53.816;8.902;2022-12-20T10:11:19;9.10;99.90
22558;DHT22;11445;53.816;8.902;2022-12-20T10:13:56;9.20;99.90
22558;DHT22;11445;53.816;8.902;2022-12-20T10:16:38;9.10;99.90
22558;DHT22;11445;53.816;8.902;2022-12-20T10:19:29;9.20;99.90
22558;DHT22;11445;53.816;8.902;2022-12-20T10:22:05;9.20;99.90
22558;DHT22;11445;53.816;8.902;2022-12-20T10:24:34;9.20;99.90
22558;DHT22;11445;53.816;8.902;2022-12-20T10:27:10;9.20;99.90
22558;DHT22;11445;53.816;8.902;2022-12-20T10:29:38;9.20;99.90
22558;DHT22;11445;53.816;8.902;2022-12-20T10:32:11;9.10;99.90
22558;DHT22;11445;53.816;8.902;2022-12-20T10:34:41;9.10;99.90
22558;DHT22;11445;53.816;8.902;2022-12-20T10:37:10;9.10;99.90
22558;DHT22;11445;53.816;8.902;2022-12-20T10:39:40;9.10;99.90
22558;DHT22;11445;53.816;8.902;2022-12-20T10:42:26;9.10;99.90
22558;DHT22;11445;53.816;8.902;2022-12-20T10:44:55;9.10;99.90
22558;DHT22;11445;53.816;8.902;2022-12-20T10:47:32;9.10;99.90
22558;DHT22;11445;53.816;8.902;2022-12-20T10:50:16;9.20;99.90
22558;DHT22;11445;53.816;8.902;2022-12-20T10:52:44;9.20;99.90
22558;DHT22;11445;53.816;8.902;2022-12-20T10:55:31;9.30;99.90
22558;DHT22;11445;53.816;8.902;2022-12-20T10:58:04;9.30;99.90
22558;DHT22;11445;53.816;8.902;2022-12-20T11:00:32;9.40;99.90
22558;DHT22;11445;53.816;8.902;2022-12-20T11:03:11;9.40;99.90
22558;DHT22;11445;53.816;8.902;2022-12-20T11:05:46;9.40;99.90
22558;DHT22;11445;53.816;8.902;2022-12-20T11:08:18;9.50;99.90
22558;DHT22;11445;53.816;8.902;2022-12-20T11:10:46;9.40;99.90
22558;DHT22;11445;53.816;8.902;2022-12-20T11:13:23;9.40;99.90
22558;DHT22;11445;53.816;8.902;2022-12-20T11:15:52;9.40;99.90
22558;DHT22;11445;53.816;8.902;2022-12-20T11:18:29;9.40;99.90
22558;DHT22;11445;53.816;8.902;2022-12-20T11:21:13;9.40;99.90
22558;DHT22;11445;53.816;8.902;2022-12-20T11:23:44;9.40;99.90
22558;DHT22;11445;53.816;8.902;2022-12-20T11:26:28;9.40;99.90
22558;DHT22;11445;53.816;8.902;2022-12-20T11:29:05;9.40;99.90
22558;DHT22;11445;53.816;8.902;2022-12-20T11:31:42;9.40;99.90
22558;DHT22;11445;53.816;8.902;2022-12-20T11:34:21;9.40;99.90
22558;DHT22;11445;53.816;8.902;2022-12-20T11:37:06;9.40;99.90
22558;DHT22;11445;53.816;8.902;2022-12-20T11:39:43;9.40;99.90
22558;DHT22;11445;53.816;8.902;2022-12-20T11:42:20;9.40;99.90
22558;DHT22;11445;53.816;8.902;2022-12-20T11:44:55;9.40;99.90
22558;DHT22;11445;53.816;8.902;2022-12-20T11:47:43;9.40;99.90
22558;DHT22;11445;53.816;8.902;2022-12-20T11:50:46;9.40;99.90
22558;DHT22;11445;53.816;8.902;2022-12-20T11:53:21;9.50;99.90
22558;DHT22;11445;53.816;8.902;2022-12-20T11:55:53;9.50;99.90
22558;DHT22;11445;53.816;8.902;2022-12-20T11:58:26;9.50;99.90
22558;DHT22;11445;53.816;8.902;2022-12-20T12:00:58;9.50;99.90
22558;DHT22;11445;53.816;8.902;2022-12-20T12:03:29;9.50;99.90
22558;DHT22;11445;53.816;8.902;2022-12-20T12:06:01;9.50;99.90
22558;DHT22;11445;53.816;8.902;2022-12-20T12:08:39;9.60;99.90
22558;DHT22;11445;53.816;8.902;2022-12-20T12:11:13;9.60;99.90
22558;DHT22;11445;53.816;8.902;2022-12-20T12:13:41;9.70;99.90
22558;DHT22;11445;53.816;8.902;2022-12-20T12:16:12;9.70;99.90
22558;DHT22;11445;53.816;8.902;2022-12-20T12:18:40;9.80;99.90
22558;DHT22;11445;53.816;8.902;2022-12-20T12:21:12;9.80;99.90
22558;DHT22;11445;53.816;8.902;2022-12-20T12:23:51;9.80;99.90
22558;DHT22;11445;53.816;8.902;2022-12-20T12:26:26;9.90;99.90
22558;DHT22;11445;53.816;8.902;2022-12-20T12:28:55;9.90;99.90
22558;DHT22;11445;53.816;8.902;2022-12-20T12:31:27;10.00;99.90
22558;DHT22;11445;53.816;8.902;2022-12-20T12:34:06;10.00;99.90
22558;DHT22;11445;53.816;8.902;2022-12-20T12:36:49;10.10;99.90
22558;DHT22;11445;53.816;8.902;2022-12-20T12:39:42;10.10;99.90
22558;DHT22;11445;53.816;8.902;2022-12-20T12:45:22;10.20;99.90
22558;DHT22;11445;53.816;8.902;2022-12-20T12:47:53;10.10;99.90
22558;DHT22;11445;53.816;8.902;2022-12-20T12:50:25;10.10;99.90
22558;DHT22;11445;53.816;8.902;2022-12-20T12:52:55;10.10;99.90
22558;DHT22;11445;53.816;8.902;2022-12-20T12:55:39;10.10;99.90
22558;DHT22;11445;53.816;8.902;2022-12-20T12:58:31;10.10;99.90
22558;DHT22;11445;53.816;8.902;2022-12-20T13:01:00;10.10;99.90
22558;DHT22;11445;53.816;8.902;2022-12-20T13:03:44;10.10;99.90
22558;DHT22;11445;53.816;8.902;2022-12-20T13:09:41;10.10;99.90
22558;DHT22;11445;53.816;8.902;2022-12-20T13:18:23;10.00;99.90
22558;DHT22;11445;53.816;8.902;2022-12-20T13:21:16;10.00;99.90
22558;DHT22;11445;53.816;8.902;2022-12-20T13:23:44;10.00;99.90
22558;DHT22;11445;53.816;8.902;2022-12-20T13:26:48;10.00;99.90
22558;DHT22;11445;53.816;8.902;2022-12-20T13:29:23;9.90;99.90
22558;DHT22;11445;53.816;8.902;2022-12-20T13:31:51;9.90;99.90
22558;DHT22;11445;53.816;8.902;2022-12-20T13:34:37;9.90;99.90
22558;DHT22;11445;53.816;8.902;2022-12-20T13:37:26;9.90;99.90
22558;DHT22;11445;53.816;8.902;2022-12-20T13:39:53;9.90;99.90
22558;DHT22;11445;53.816;8.902;2022-12-20T13:42:33;9.90;99.90
22558;DHT22;11445;53.816;8.902;2022-12-20T13:45:08;9.90;99.90
22558;DHT22;11445;53.816;8.902;2022-12-20T13:47:38;9.90;99.90
22558;DHT22;11445;53.816;8.902;2022-12-20T13:50:32;9.90;99.90
22558;DHT22;11445;53.816;8.902;2022-12-20T13:53:03;9.90;99.90
22558;DHT22;11445;53.816;8.902;2022-12-20T13:55:34;9.80;99.90
22558;DHT22;11445;53.816;8.902;2022-12-20T13:58:09;9.80;99.90
22558;DHT22;11445;53.816;8.902;2022-12-20T14:00:37;9.80;99.90
22558;DHT22;11445;53.816;8.902;2022-12-20T14:03:09;9.80;99.90
22558;DHT22;11445;53.816;8.902;2022-12-20T14:05:39;9.80;99.90
22558;DHT22;11445;53.816;8.902;2022-12-20T14:08:08;9.80;99.90
22558;DHT22;11445;53.816;8.902;2022-12-20T14:10:39;9.80;99.90
22558;DHT22;11445;53.816;8.902;2022-12-20T14:13:20;9.80;99.90
22558;DHT22;11445;53.816;8.902;2022-12-20T14:15:47;9.80;99.90
22558;DHT22;11445;53.816;8.902;2022-12-20T14:18:17;9.80;99.90
22558;DHT22;11445;53.816;8.902;2022-12-20T14:20:47;9.70;99.90
22558;DHT22;11445;53.816;8.902;2022-12-20T14:23:17;9.70;99.90
22558;DHT22;11445;53.816;8.902;2022-12-20T14:25:48;9.70;99.90
22558;DHT22;11445;53.816;8.902;2022-12-20T14:28:25;9.70;99.90
22558;DHT22;11445;53.816;8.902;2022-12-20T14:30:55;9.70;99.90
22558;DHT22;11445;53.816;8.902;2022-12-20T14:33:28;9.70;99.90
22558;DHT22;11445;53.816;8.902;2022-12-20T14:36:07;9.70;99.90
22558;DHT22;11445;53.816;8.902;2022-12-20T14:38:34;9.70;99.90
22558;DHT22;11445;53.816;8.902;2022-12-20T14:41:01;9.70;99.90
22558;DHT22;11445;53.816;8.902;2022-12-20T14:43:33;9.70;99.90
22558;DHT22;11445;53.816;8.902;2022-12-20T14:46:07;9.70;99.90
22558;DHT22;11445;53.816;8.902;2022-12-20T14:48:35;9.70;99.90
22558;DHT22;11445;53.816;8.902;2022-12-20T14:51:04;9.60;99.90
22558;DHT22;11445;53.816;8.902;2022-12-20T14:53:32;9.70;99.90
22558;DHT22;11445;53.816;8.902;2022-12-20T14:56:00;9.70;99.90
22558;DHT22;11445;53.816;8.902;2022-12-20T14:58:29;9.70;99.90
22558;DHT22;11445;53.816;8.902;2022-12-20T15:00:58;9.70;99.90
22558;DHT22;11445;53.816;8.902;2022-12-20T15:03:26;9.70;99.90
22558;DHT22;11445;53.816;8.902;2022-12-20T15:05:54;9.60;99.90
22558;DHT22;11445;53.816;8.902;2022-12-20T15:08:25;9.60;99.90
22558;DHT22;11445;53.816;8.902;2022-12-20T15:10:58;9.60;99.90
22558;DHT22;11445;53.816;8.902;2022-12-20T15:13:30;9.60;99.90
22558;DHT22;11445;53.816;8.902;2022-12-20T15:15:59;9.60;99.90
22558;DHT22;11445;53.816;8.902;2022-12-20T15:18:26;9.60;99.90
22558;DHT22;11445;53.816;8.902;2022-12-20T15:21:00;9.60;99.90
22558;DHT22;11445;53.816;8.902;2022-12-20T15:23:30;9.60;99.90
22558;DHT22;11445;53.816;8.902;2022-12-20T15:25:59;9.60;99.90
22558;DHT22;11445;53.816;8.902;2022-12-20T15:28:26;9.60;99.90
22558;DHT22;11445;53.816;8.902;2022-12-20T15:30:53;9.60;99.90
22558;DHT22;11445;53.816;8.902;2022-12-20T15:33:23;9.60;99.90
22558;DHT22;11445;53.816;8.902;2022-12-20T15:35:51;9.60;99.90
22558;DHT22;11445;53.816;8.902;2022-12-20T15:38:20;9.60;99.90
22558;DHT22;11445;53.816;8.902;2022-12-20T15:40:51;9.60;99.90
22558;DHT22;11445;53.816;8.902;2022-12-20T15:43:20;9.60;99.90
22558;DHT22;11445;53.816;8.902;2022-12-20T15:45:51;9.60;99.90
22558;DHT22;11445;53.816;8.902;2022-12-20T15:48:19;9.60;99.90
22558;DHT22;11445;53.816;8.902;2022-12-20T15:50:52;9.70;99.90
22558;DHT22;11445;53.816;8.902;2022-12-20T15:53:21;9.70;99.90
22558;DHT22;11445;53.816;8.902;2022-12-20T15:55:52;9.70;99.90
22558;DHT22;11445;53.816;8.902;2022-12-20T15:58:20;9.60;99.90
22558;DHT22;11445;53.816;8.902;2022-12-20T16:00:47;9.60;99.90
22558;DHT22;11445;53.816;8.902;2022-12-20T16:03:16;9.60;99.90
22558;DHT22;11445;53.816;8.902;2022-12-20T16:05:45;9.50;99.90
22558;DHT22;11445;53.816;8.902;2022-12-20T16:08:12;9.60;99.90
22558;DHT22;11445;53.816;8.902;2022-12-20T16:10:39;9.60;99.90
22558;DHT22;11445;53.816;8.902;2022-12-20T16:13:12;9.60;99.90
22558;DHT22;11445;53.816;8.902;2022-12-20T16:15:39;9.60;99.90
22558;DHT22;11445;53.816;8.902;2022-12-20T16:18:06;9.60;99.90
22558;DHT22;11445;53.816;8.902;2022-12-20T16:20:33;9.60;99.90
22558;DHT22;11445;53.816;8.902;2022-12-20T16:23:01;9.60;99.90
22558;DHT22;11445;53.816;8.902;2022-12-20T16:25:31;9.60;99.90
22558;DHT22;11445;53.816;8.902;2022-12-20T16:27:58;9.60;99.90